WD6FGE Weather Reports


Display with metric or nautical units.
time (UTC)temp
F
wind
direction
speed
MPH
gust
MPH
rain 1hr
in
rain 24hr
in
rain mn
in
humidity
%
barometer
mb
20180722031642 82 273 0.0 2.0 0.00 0.00 0.00 36 1009.8
20180722030700 83 298 0.0 5.0 0.00 0.00 0.00 35 1009.6
20180722025632 85 244 2.0 5.0 0.00 0.00 0.00 33 1009.6
20180722024611 85 263 1.0 4.0 0.00 0.00 0.00 34 1009.6
20180722023613 86 232 1.0 3.0 0.00 0.00 0.00 34 1009.5
20180722022618 86 269 0.0 3.0 0.00 0.00 0.00 34 1009.4
20180722021629 87 303 1.0 7.0 0.00 0.00 0.00 33 1009.3
20180722020617 87 270 2.0 7.0 0.00 0.00 0.00 32 1009.3
20180722015556 88 189 1.0 7.0 0.00 0.00 0.00 32 1009.2
20180722014530 88 265 2.0 7.0 0.00 0.00 0.00 31 1009.2
20180722013520 88 242 3.0 7.0 0.00 0.00 0.00 29 1009.1
20180722012535 89 252 3.0 7.0 0.00 0.00 0.00 28 1009.1
20180722011559 90 193 3.0 8.0 0.00 0.00 0.00 27 1009.2
20180722010604 91 270 4.0 10.0 0.00 0.00 0.00 25 1009.2
20180722005550 91 254 5.0 13.0 0.00 0.00 0.00 24 1009.2
20180722004527 91 254 4.0 13.0 0.00 0.00 0.00 23 1009.1
20180722003525 91 256 4.0 15.0 0.00 0.00 0.00 23 1009.2
20180722002521 91 173 6.0 15.0 0.00 0.00 0.00 22 1009.2
20180722001532 92 221 6.0 14.0 0.00 0.00 0.00 21 1009.3
20180722000525 92 145 5.0 11.0 0.00 0.00 0.00 22 1009.3
20180721235459 91 286 6.0 17.0 0.00 0.00 0.00 21 1009.4
20180721234459 92 171 5.0 17.0 0.00 0.00 0.00 21 1009.4
20180721233431 92 198 4.0 14.0 0.00 0.00 0.00 19 1009.5
20180721232455 92 296 5.0 13.0 0.00 0.00 0.00 20 1009.4
20180721231440 91 238 6.0 13.0 0.00 0.00 0.00 20 1009.4
20180721230457 91 221 6.0 13.0 0.00 0.00 0.00 21 1009.5
20180721225427 92 215 3.0 13.0 0.00 0.00 0.00 21 1009.7
20180721224443 92 232 6.0 14.0 0.00 0.00 0.00 21 1009.6
20180721223412 92 233 5.0 14.0 0.00 0.00 0.00 21 1009.6
20180721222405 92 191 4.0 12.0 0.00 0.00 0.00 24 1009.7
20180721221400 92 229 3.0 10.0 0.00 0.00 0.00 22 1009.7
20180721220348 92 272 3.0 15.0 0.00 0.00 0.00 23 1009.7
20180721215326 91 190 6.0 15.0 0.00 0.00 0.00 25 1009.8
20180721214300 92 178 5.0 13.0 0.00 0.00 0.00 24 1009.8
20180721213318 92 233 4.0 11.0 0.00 0.00 0.00 26 1009.8
20180721212245 92 186 4.0 14.0 0.00 0.00 0.00 26 1009.8
20180721211300 91 248 4.0 14.0 0.00 0.00 0.00 25 1009.9
20180721210231 91 234 5.0 11.0 0.00 0.00 0.00 26 1009.8
20180721205235 91 189 4.0 11.0 0.00 0.00 0.00 27 1010.0
20180721204231 90 214 4.0 10.0 0.00 0.00 0.00 27 1010.1
20180721203214 91 179 4.0 12.0 0.00 0.00 0.00 26 1010.0
20180721202203 91 191 4.0 12.0 0.00 0.00 0.00 24 1010.2
20180721201129 90 246 4.0 16.0 0.00 0.00 0.00 25 1010.2
20180721200147 90 294 5.0 16.0 0.00 0.00 0.00 23 1010.3
20180721195114 91 235 4.0 10.0 0.00 0.00 0.00 25 1010.3
20180721194106 90 265 3.0 10.0 0.00 0.00 0.00 23 1010.2
20180721193058 89 245 2.0 9.0 0.00 0.00 0.00 25 1010.3
20180721192048 88 219 2.0 6.0 0.00 0.00 0.00 29 1010.3
20180721191029 88 282 2.0 6.0 0.00 0.00 0.00 33 1010.5
20180721190028 87 267 1.0 4.0 0.00 0.00 0.00 33 1010.5
20180721185016 85 130 3.0 7.0 0.00 0.00 0.00 34 1010.7
20180721184024 85 248 2.0 7.0 0.00 0.00 0.00 36 1010.6
20180721183032 85 178 2.0 9.0 0.00 0.00 0.00 34 1010.7
20180721182029 84 221 3.0 9.0 0.00 0.00 0.00 37 1010.8
20180721181034 84 217 1.0 5.0 0.00 0.00 0.00 36 1010.8
20180721180016 84 202 2.0 5.0 0.00 0.00 0.00 35 1010.8
20180721175033 83 216 1.0 4.0 0.00 0.00 0.00 36 1010.8
20180721174048 83 16 1.0 4.0 0.00 0.00 0.00 36 1010.9
20180721173031 81 180 1.0 4.0 0.00 0.00 0.00 39 1011.0
20180721172014 81 94 1.0 4.0 0.00 0.00 0.00 37 1011.0
20180721171018 80 186 0.0 3.0 0.00 0.00 0.00 38 1011.1
20180721165944 79 296 1.0 2.0 0.00 0.00 0.00 39 1011.1
20180721165006 78 348 0.0 2.0 0.00 0.00 0.00 39 1011.3
20180721163956 77 333 0.0 2.0 0.00 0.00 0.00 39 1011.4
20180721162932 76 20 0.0 2.0 0.00 0.00 0.00 39 1011.4
20180721161956 75 48 0.0 2.0 0.00 0.00 0.00 44 1011.5
20180721160950 73 131 0.0 3.0 0.00 0.00 0.00 45 1011.6
20180721160006 72 13 1.0 3.0 0.00 0.00 0.00 48 1011.5
20180721155002 72 5 1.0 3.0 0.00 0.00 0.00 48 1011.5
20180721153946 70 41 0.0 2.0 0.00 0.00 0.00 49 1011.5
20180721152956 68 55 0.0 2.0 0.00 0.00 0.00 52 1011.4
20180721151927 66 146 0.0 0.0 0.00 0.00 0.00 65 1011.5
20180721150925 65 146 0.0 0.0 0.00 0.00 0.00 67 1011.4
20180721145907 62 146 0.0 0.0 0.00 0.00 0.00 70 1011.5
20180721144837 59 146 0.0 0.0 0.00 0.00 0.00 73 1011.5
20180721143847 56 146 0.0 0.0 0.00 0.00 0.00 77 1011.4
20180721142910 55 146 0.0 0.0 0.00 0.00 0.00 78 1011.5
20180721141859 53 146 0.0 0.0 0.00 0.00 0.00 78 1011.4
20180721140855 53 146 0.0 0.0 0.00 0.00 0.00 78 1011.3
20180721135839 52 146 0.0 0.0 0.00 0.00 0.00 78 1011.4
20180721134827 52 242 0.0 0.0 0.00 0.00 0.00 78 1011.3
20180721133756 52 242 0.0 0.0 0.00 0.00 0.00 77 1011.2
20180721132818 52 242 0.0 0.0 0.00 0.00 0.00 77 1011.1
20180721131840 52 242 0.0 0.0 0.00 0.00 0.00 76 1011.0
20180721130810 52 242 0.0 0.0 0.00 0.00 0.00 76 1010.9
20180721125751 52 242 0.0 0.0 0.00 0.00 0.00 75 1010.8
20180721124753 53 242 0.0 0.0 0.00 0.00 0.00 75 1010.7
20180721123731 53 242 0.0 0.0 0.00 0.00 0.00 74 1010.7
20180721122712 54 242 0.0 0.0 0.00 0.00 0.00 73 1010.5
20180721121712 54 242 0.0 0.0 0.00 0.00 0.00 72 1010.5
20180721120736 54 242 0.0 0.0 0.00 0.00 0.00 73 1010.5
20180721115706 55 242 0.0 0.0 0.00 0.00 0.00 70 1010.5
20180721114651 55 242 0.0 0.0 0.00 0.00 0.00 68 1010.6
20180721113634 56 242 0.0 0.0 0.00 0.00 0.00 68 1010.4
20180721112638 56 242 0.0 0.0 0.00 0.00 0.00 66 1010.5
20180721111628 56 242 0.0 0.0 0.00 0.00 0.00 65 1010.6
20180721110645 56 242 0.0 1.0 0.00 0.00 0.00 65 1010.6
20180721105656 56 242 0.0 0.0 0.00 0.00 0.00 64 1010.6
20180721104702 57 242 0.0 0.0 0.00 0.00 0.00 67 1010.5
20180721103642 57 242 0.0 0.0 0.00 0.00 0.00 64 1010.6
20180721102654 57 242 0.0 1.0 0.00 0.00 0.00 68 1010.5
20180721101654 56 241 0.0 0.0 0.00 0.00 0.00 63 1010.5
20180721100623 57 241 0.0 0.0 0.00 0.00 0.00 65 1010.5
20180721095601 57 241 0.0 0.0 0.00 0.00 0.00 62 1010.3
20180721094543 57 241 0.0 0.0 0.00 0.00 0.00 60 1010.3
20180721093511 57 241 0.0 0.0 0.00 0.00 0.00 60 1010.4
20180721092534 57 241 0.0 0.0 0.00 0.00 0.00 59 1010.3
20180721091534 58 241 0.0 0.0 0.00 0.00 0.00 58 1010.3
20180721090522 58 241 0.0 0.0 0.00 0.00 0.00 57 1010.3
20180721085512 58 241 0.0 0.0 0.00 0.00 0.00 56 1010.2
20180721084532 59 241 0.0 0.0 0.00 0.00 0.00 55 1010.2
20180721083514 59 241 0.0 0.0 0.00 0.00 0.00 55 1010.1
20180721082527 59 241 0.0 1.0 0.00 0.00 0.00 55 1010.1
20180721081526 59 241 0.0 0.0 0.00 0.00 0.00 54 1010.0
20180721080455 60 241 0.0 1.0 0.00 0.00 0.00 54 1010.0
20180721075446 60 241 1.0 1.0 0.00 0.00 0.00 53 1009.8
20180721074426 61 241 0.0 1.0 0.00 0.00 0.00 53 1009.8
20180721073422 61 241 0.0 1.0 0.00 0.00 0.00 52 1009.8
20180721072433 62 241 0.0 0.0 0.00 0.00 0.00 51 1009.8
20180721071450 62 241 0.0 0.0 0.00 0.00 0.00 51 1009.7
20180721070510 63 241 0.0 1.0 0.00 0.00 0.00 50 1009.7
20180721065441 63 241 0.0 2.0 0.00 0.00 0.00 50 1009.5
20180721064506 64 241 0.0 2.0 0.00 0.00 0.00 49 1009.6
20180721063451 64 241 0.0 1.0 0.00 0.00 0.00 49 1009.4
20180721062421 65 241 0.0 0.0 0.00 0.00 0.00 49 1009.3
20180721061426 65 241 0.0 0.0 0.00 0.00 0.00 47 1009.3
20180721060401 66 241 1.0 2.0 0.00 0.00 0.00 46 1009.2
20180721055337 67 241 1.0 2.0 0.00 0.00 0.00 45 1009.2
20180721054357 68 240 0.0 1.0 0.00 0.00 0.00 44 1009.2
20180721053337 69 240 0.0 1.0 0.00 0.00 0.00 44 1009.2
20180721052340 69 240 0.0 0.0 0.00 0.00 0.00 44 1009.1
20180721051355 70 240 1.0 1.0 0.00 0.00 0.00 44 1009.0
20180721050418 70 240 1.0 3.0 0.00 0.00 0.00 43 1009.0
20180721045436 71 202 0.0 3.0 0.00 0.00 0.00 43 1008.9
20180721044402 71 177 0.0 1.0 0.00 0.00 0.00 42 1008.8
20180721043339 71 277 0.0 1.0 0.00 0.00 0.00 44 1008.6
20180721042342 72 271 0.0 2.0 0.00 0.00 0.00 44 1008.5
20180721041402 74 262 0.0 1.0 0.00 0.00 0.00 42 1008.3
20180721040416 76 269 0.0 4.0 0.00 0.00 0.00 34 1008.0
20180721035416 77 186 0.0 4.0 0.00 0.00 0.00 33 1007.9
20180721034421 77 263 0.0 6.0 0.00 0.00 0.00 33 1007.6
20180721033357 78 247 1.0 6.0 0.00 0.00 0.00 33 1007.6
20180721032333 79 241 1.0 5.0 0.00 0.00 0.00 34 1007.5